WetterOnline ( https://www.wetteronline.ch )

Wetter aktuell Helgoland

Aktuelles Wetter: Helgoland/Düne (8m)

6-stündlich | Neueste Meldungen
Ortszeit Temperatur Wetter
Mi, 17.07. 8:00 16.4° C bewölkt
Mi, 17.07. 2:00 17.4° C bedeckt
Di, 16.07. 20:00 18.2° C wolkig
Di, 16.07. 14:00 19.2° C wolkenlos
Di, 16.07. 8:00 17.8° C bedeckt
Di, 16.07. 2:00 18.0° C bedeckt
Mo, 15.07. 20:00 16.8° C leicht bewölkt
Mo, 15.07. 14:00 17.7° C wolkenlos
Ortszeit Temperatur Wetter
Mi, 17.07. 12:00 16.1° C Sprühregen
Mi, 17.07. 11:50 16.1° C Sprühregen
Mi, 17.07. 11:40 16.2° C Sprühregen
Mi, 17.07. 11:30 16.2° C Sprühregen
Mi, 17.07. 11:20 16.2° C Sprühregen
Mi, 17.07. 11:10 16.5° C bedeckt
Mi, 17.07. 11:00 16.3° C bedeckt
Mi, 17.07. 10:30 16.3° C bedeckt
Mi, 17.07. 10:00 15.9° C bedeckt
Mi, 17.07. 9:30 16.1° C bedeckt
Mi, 17.07. 9:00 16.3° C bedeckt
Ortszeit Relative Feuchte Sichtweite
Mi, 17.07. 8:00 93% 23 km
Mi, 17.07. 2:00 88% 45 km
Di, 16.07. 20:00 84% 35 km
Di, 16.07. 14:00 83% 29 km
Di, 16.07. 8:00 90% 35 km
Di, 16.07. 2:00 85% 35 km
Mo, 15.07. 20:00 80% 50 km
Mo, 15.07. 14:00 78% 45 km
Ortszeit Relative Feuchte Sichtweite
Mi, 17.07. 12:00 96% 9 km
Mi, 17.07. 11:50 96% -
Mi, 17.07. 11:40 97% -
Mi, 17.07. 11:30 96% 3.1 km
Mi, 17.07. 11:20 96% -
Mi, 17.07. 11:10 93% -
Mi, 17.07. 11:00 97% 4.2 km
Mi, 17.07. 10:30 94% 20 km
Mi, 17.07. 10:00 96% 23 km
Mi, 17.07. 9:30 94% 19 km
Mi, 17.07. 9:00 90% 21 km
Ortszeit Niederschlagsmenge Niederschlagsart
Mi, 17.07. 8:00 1 l/m2 in 12 Std. Regen
Mi, 17.07. 2:00 0.1 l/m2 in 6 Std. Regen
Di, 16.07. 20:00 0.1 l/m2 in 12 Std. Regen
Di, 16.07. 14:00 0.1 l/m2 in 6 Std. Regen
Di, 16.07. 8:00 5 l/m2 in 12 Std. Regen
Di, 16.07. 2:00 0.0 l/m2 in 6 Std. -
Mo, 15.07. 20:00 0.0 l/m2 in 12 Std. -
Mo, 15.07. 14:00 0.0 l/m2 in 6 Std. -
Ortszeit Niederschlagsmenge Niederschlagsart
Mi, 17.07. 12:00 <0.05 l/m2 in 1 Std. Regen
Mi, 17.07. 11:50 keine Meldung -
Mi, 17.07. 11:40 keine Meldung -
Mi, 17.07. 11:30 <0.05 l/m2 in 30 Min -
Mi, 17.07. 11:20 keine Meldung -
Mi, 17.07. 11:10 keine Meldung -
Mi, 17.07. 11:00 <0.05 l/m2 in 1 Std. Regen
Mi, 17.07. 10:30 <0.05 l/m2 in 30 Min Schnee
Mi, 17.07. 10:00 <0.05 l/m2 in 1 Std. Regen
Mi, 17.07. 9:30 <0.05 l/m2 in 30 Min Schneeregen
Mi, 17.07. 9:00 <0.05 l/m2 in 1 Std. Regen
Ortszeit Stärke Spitze Richtung
km/h Bft. km/h Grad Sektor
Mi, 17.07. 8:00 30 5 44 270° W
Mi, 17.07. 2:00 17 3 31 200° S
Di, 16.07. 20:00 14 3 32 220° SW
Di, 16.07. 14:00 20 4 46 240° SW
Di, 16.07. 8:00 24 4 41 140° SO
Di, 16.07. 2:00 26 4 37 80° O
Mo, 15.07. 20:00 9 2 28 40° NO
Mo, 15.07. 14:00 18 3 43 260° W
Ortszeit Stärke Spitze Richtung
km/h Bft. km/h Grad Sektor
Mi, 17.07. 12:00 32 5 47 290° W
Mi, 17.07. 11:50 32 5 - 290° W
Mi, 17.07. 11:40 31 5 - 290° W
Mi, 17.07. 11:30 30 5 44 280° W
Mi, 17.07. 11:20 30 5 - 280° W
Mi, 17.07. 11:10 32 5 - 280° W
Mi, 17.07. 11:00 29 5 47 270° W
Mi, 17.07. 10:30 32 5 47 260° W
Mi, 17.07. 10:00 29 5 47 260° W
Mi, 17.07. 9:30 32 5 47 260° W
Mi, 17.07. 9:00 28 4 43 260° W
Ortszeit Untergrenze Bedeckung Gattung
total tief tief mittel hoch
Mi, 17.07. 8:00 270 m 7/8 7/8 - - -
Mi, 17.07. 2:00 1500 m 8/8 8/8 - - -
Di, 16.07. 20:00 2400 m 8/8 2/8 - - -
Di, 16.07. 14:00 - 0/8 0/8 - - -
Di, 16.07. 8:00 690 m 8/8 8/8 - - -
Di, 16.07. 2:00 3600 m 8/8 8/8 - - -
Mo, 15.07. 20:00 6300 m 4/8 4/8 - - -
Mo, 15.07. 14:00 - 0/8 0/8 - - -
Ortszeit Bedeckungsgrad in Achtel und Wolkenuntergrenze
Mi, 17.07. 12:00 3(150m) 7(450m) 8(600m)
Mi, 17.07. 11:50 3(150m) 7(450m) 8(600m)
Mi, 17.07. 11:40 8
Mi, 17.07. 11:30 4(180m) 8(330m)
Mi, 17.07. 11:20 4(180m) 8(330m)
Mi, 17.07. 11:10 8
Mi, 17.07. 11:00 7(180m) 8(270m)
Mi, 17.07. 10:30 8(210m)
Mi, 17.07. 10:00 4(180m) 8(330m)
Mi, 17.07. 9:30 7(330m) 8(450m)
Mi, 17.07. 9:00 7(420m) 8(570m)
Ortszeit Luftdruck NN (hPa) Tendenz (hPa in 3 Std.)
Mi, 17.07. 8:00 1013 + 2,2
Mi, 17.07. 2:00 1011 - 0,1
Di, 16.07. 20:00 1010 + 0,5
Di, 16.07. 14:00 1009 + 2,1
Di, 16.07. 8:00 1007 - 2,3
Di, 16.07. 2:00 1009 - 1,7
Mo, 15.07. 20:00 1012 - 0,6
Mo, 15.07. 14:00 1013 + 0,9
Ortszeit Luftdruck NN (hPa) Tendenz (hPa in 3 Std.)
Mi, 17.07. 12:00 1016 + 2,1
Mi, 17.07. 11:50 1016 keine Meldung
Mi, 17.07. 11:40 1016 keine Meldung
Mi, 17.07. 11:30 1016 + 2,1
Mi, 17.07. 11:20 1016 keine Meldung
Mi, 17.07. 11:10 1016 keine Meldung
Mi, 17.07. 11:00 1015 + 2,0
Mi, 17.07. 10:30 1015 + 2,0
Mi, 17.07. 10:00 1015 + 2,2
Mi, 17.07. 9:30 1014 + 2,4
Mi, 17.07. 9:00 1014 + 2,5
Ortszeit Schneehöhe (cm)
Mi, 17.07. 8:00 0
Mi, 17.07. 2:00 0
Di, 16.07. 20:00 0
Di, 16.07. 14:00 0
Di, 16.07. 8:00 0
Di, 16.07. 2:00 0
Mo, 15.07. 20:00 0
Mo, 15.07. 14:00 0
Ortszeit Schneehöhe (cm)
Mi, 17.07. 12:00 0
Mi, 17.07. 11:50 0
Mi, 17.07. 11:40 -
Mi, 17.07. 11:30 0
Mi, 17.07. 11:20 0
Mi, 17.07. 11:10 -
Mi, 17.07. 11:00 0
Mi, 17.07. 10:30 0
Mi, 17.07. 10:00 0
Mi, 17.07. 9:30 0
Mi, 17.07. 9:00 0
Link zu dieser Seite / Seite empfehlen

Das Wetter in ...